Аэропорт: Минеральные Воды. Минеральные Воды

ICAO: URMM

METAR:
2021-07-28 13:30:00
URMM 281330Z 14004MPS 9999 SCT/// 25/12 Q1017 R12/090070 NOSIG RMK QFE735/0980
METAR:
2021-07-28 11:00:00
TAF URMM 281100Z 2812/2912 12003G08MPS 9999 BKN020 TX27/2912Z TN16/2903Z TEMPO 2903/2906 BKN016